sensor_id;sensor_type;location;lat;lon;timestamp;P1;durP1;ratioP1;P2;durP2;ratioP2
75209;SDS011;63796;53.136;14.882;2024-03-29T00:01:20;1.60;;;0.50;;
75209;SDS011;63796;53.136;14.882;2024-03-29T00:05:20;1.70;;;0.70;;
75209;SDS011;63796;53.136;14.882;2024-03-29T00:09:21;1.10;;;0.30;;
75209;SDS011;63796;53.136;14.882;2024-03-29T00:13:22;0.90;;;0.30;;
75209;SDS011;63796;53.136;14.882;2024-03-29T00:17:23;0.60;;;0.20;;
75209;SDS011;63796;53.136;14.882;2024-03-29T00:21:24;0.90;;;0.20;;
75209;SDS011;63796;53.136;14.882;2024-03-29T00:25:24;0.80;;;0.10;;
75209;SDS011;63796;53.136;14.882;2024-03-29T00:29:25;4.20;;;0.50;;
75209;SDS011;63796;53.136;14.882;2024-03-29T00:33:26;0.60;;;0.10;;
75209;SDS011;63796;53.136;14.882;2024-03-29T00:37:27;1.40;;;0.30;;
75209;SDS011;63796;53.136;14.882;2024-03-29T00:41:27;1.40;;;0.10;;
75209;SDS011;63796;53.136;14.882;2024-03-29T00:45:09;1.60;;;0.20;;
75209;SDS011;63796;53.136;14.882;2024-03-29T00:48:21;1.40;;;0.10;;
75209;SDS011;63796;53.136;14.882;2024-03-29T00:51:08;1.00;;;0.10;;
75209;SDS011;63796;53.136;14.882;2024-03-29T00:55:08;2.10;;;0.40;;
75209;SDS011;63796;53.136;14.882;2024-03-29T00:59:09;1.80;;;0.30;;
75209;SDS011;63796;53.136;14.882;2024-03-29T01:03:10;0.90;;;0.20;;
75209;SDS011;63796;53.136;14.882;2024-03-29T01:07:11;0.50;;;0.20;;
75209;SDS011;63796;53.136;14.882;2024-03-29T01:11:11;0.50;;;0.10;;
75209;SDS011;63796;53.136;14.882;2024-03-29T01:15:12;1.70;;;0.20;;
75209;SDS011;63796;53.136;14.882;2024-03-29T01:19:13;1.40;;;0.40;;
75209;SDS011;63796;53.136;14.882;2024-03-29T01:23:14;1.10;;;0.20;;
75209;SDS011;63796;53.136;14.882;2024-03-29T01:27:15;0.40;;;0.10;;
75209;SDS011;63796;53.136;14.882;2024-03-29T01:31:15;0.70;;;0.20;;
75209;SDS011;63796;53.136;14.882;2024-03-29T01:35:16;0.80;;;0.30;;
75209;SDS011;63796;53.136;14.882;2024-03-29T01:39:17;2.70;;;0.20;;
75209;SDS011;63796;53.136;14.882;2024-03-29T01:43:18;0.60;;;0.40;;
75209;SDS011;63796;53.136;14.882;2024-03-29T01:47:18;1.80;;;0.40;;
75209;SDS011;63796;53.136;14.882;2024-03-29T01:51:19;0.80;;;0.30;;
75209;SDS011;63796;53.136;14.882;2024-03-29T01:55:23;0.50;;;0.30;;
75209;SDS011;63796;53.136;14.882;2024-03-29T01:59:23;1.10;;;0.40;;
75209;SDS011;63796;53.136;14.882;2024-03-29T02:03:24;0.50;;;0.20;;
75209;SDS011;63796;53.136;14.882;2024-03-29T02:07:25;1.30;;;0.30;;
75209;SDS011;63796;53.136;14.882;2024-03-29T02:11:26;0.80;;;0.20;;
75209;SDS011;63796;53.136;14.882;2024-03-29T02:15:30;2.10;;;0.30;;
75209;SDS011;63796;53.136;14.882;2024-03-29T02:19:30;0.40;;;0.20;;
75209;SDS011;63796;53.136;14.882;2024-03-29T02:23:32;1.00;;;0.20;;
75209;SDS011;63796;53.136;14.882;2024-03-29T02:27:32;1.20;;;0.20;;
75209;SDS011;63796;53.136;14.882;2024-03-29T02:31:32;3.50;;;0.30;;
75209;SDS011;63796;53.136;14.882;2024-03-29T02:35:33;0.60;;;0.20;;
75209;SDS011;63796;53.136;14.882;2024-03-29T02:39:34;2.80;;;0.40;;
75209;SDS011;63796;53.136;14.882;2024-03-29T02:43:35;1.80;;;0.30;;
75209;SDS011;63796;53.136;14.882;2024-03-29T02:47:35;1.00;;;0.30;;
75209;SDS011;63796;53.136;14.882;2024-03-29T02:51:36;1.30;;;0.30;;
75209;SDS011;63796;53.136;14.882;2024-03-29T02:55:37;1.30;;;0.20;;
75209;SDS011;63796;53.136;14.882;2024-03-29T02:59:41;3.00;;;0.60;;
75209;SDS011;63796;53.136;14.882;2024-03-29T03:03:41;2.60;;;0.30;;
75209;SDS011;63796;53.136;14.882;2024-03-29T03:07:42;2.10;;;0.40;;
75209;SDS011;63796;53.136;14.882;2024-03-29T03:11:41;1.30;;;0.30;;
75209;SDS011;63796;53.136;14.882;2024-03-29T03:15:42;1.00;;;0.20;;
75209;SDS011;63796;53.136;14.882;2024-03-29T03:19:43;1.40;;;0.40;;
75209;SDS011;63796;53.136;14.882;2024-03-29T03:23:46;2.90;;;0.30;;
75209;SDS011;63796;53.136;14.882;2024-03-29T03:27:47;0.40;;;0.10;;
75209;SDS011;63796;53.136;14.882;2024-03-29T03:31:48;2.10;;;0.40;;
75209;SDS011;63796;53.136;14.882;2024-03-29T03:35:48;0.60;;;0.10;;
75209;SDS011;63796;53.136;14.882;2024-03-29T03:39:49;1.20;;;0.40;;
75209;SDS011;63796;53.136;14.882;2024-03-29T03:43:50;0.70;;;0.10;;
75209;SDS011;63796;53.136;14.882;2024-03-29T03:47:51;1.70;;;0.20;;
75209;SDS011;63796;53.136;14.882;2024-03-29T03:51:51;2.40;;;0.30;;
75209;SDS011;63796;53.136;14.882;2024-03-29T03:55:52;0.70;;;0.20;;
75209;SDS011;63796;53.136;14.882;2024-03-29T03:59:53;0.90;;;0.10;;
75209;SDS011;63796;53.136;14.882;2024-03-29T04:03:54;2.30;;;0.10;;
75209;SDS011;63796;53.136;14.882;2024-03-29T04:07:54;0.90;;;0.10;;
75209;SDS011;63796;53.136;14.882;2024-03-29T04:11:55;1.00;;;0.30;;
75209;SDS011;63796;53.136;14.882;2024-03-29T04:16:05;0.60;;;0.10;;
75209;SDS011;63796;53.136;14.882;2024-03-29T04:20:03;1.30;;;0.30;;
75209;SDS011;63796;53.136;14.882;2024-03-29T04:24:03;1.70;;;0.20;;
75209;SDS011;63796;53.136;14.882;2024-03-29T04:28:04;1.50;;;0.10;;
75209;SDS011;63796;53.136;14.882;2024-03-29T04:32:05;2.50;;;0.30;;
75209;SDS011;63796;53.136;14.882;2024-03-29T04:36:15;0.30;;;0.10;;
75209;SDS011;63796;53.136;14.882;2024-03-29T04:40:16;2.00;;;0.20;;
75209;SDS011;63796;53.136;14.882;2024-03-29T04:44:23;1.00;;;0.20;;
75209;SDS011;63796;53.136;14.882;2024-03-29T04:48:23;3.90;;;0.30;;
75209;SDS011;63796;53.136;14.882;2024-03-29T04:52:24;1.30;;;0.40;;
75209;SDS011;63796;53.136;14.882;2024-03-29T04:56:25;2.40;;;0.40;;
75209;SDS011;63796;53.136;14.882;2024-03-29T05:00:26;1.60;;;0.30;;
75209;SDS011;63796;53.136;14.882;2024-03-29T05:04:28;0.70;;;0.20;;
75209;SDS011;63796;53.136;14.882;2024-03-29T05:07:30;1.00;;;0.20;;
75209;SDS011;63796;53.136;14.882;2024-03-29T05:09:57;0.80;;;0.20;;
75209;SDS011;63796;53.136;14.882;2024-03-29T05:12:46;1.40;;;0.20;;
75209;SDS011;63796;53.136;14.882;2024-03-29T05:16:47;2.00;;;0.20;;
75209;SDS011;63796;53.136;14.882;2024-03-29T05:20:47;0.90;;;0.20;;
75209;SDS011;63796;53.136;14.882;2024-03-29T05:24:52;3.60;;;0.70;;
75209;SDS011;63796;53.136;14.882;2024-03-29T05:28:49;4.20;;;0.30;;
75209;SDS011;63796;53.136;14.882;2024-03-29T05:32:50;0.50;;;0.10;;
75209;SDS011;63796;53.136;14.882;2024-03-29T05:36:50;1.10;;;0.30;;
75209;SDS011;63796;53.136;14.882;2024-03-29T05:40:51;3.40;;;0.30;;
75209;SDS011;63796;53.136;14.882;2024-03-29T05:44:52;1.60;;;0.30;;
75209;SDS011;63796;53.136;14.882;2024-03-29T05:48:53;3.40;;;0.40;;
75209;SDS011;63796;53.136;14.882;2024-03-29T05:52:54;0.70;;;0.40;;
75209;SDS011;63796;53.136;14.882;2024-03-29T05:56:54;1.00;;;0.30;;
75209;SDS011;63796;53.136;14.882;2024-03-29T06:00:55;1.10;;;0.30;;
75209;SDS011;63796;53.136;14.882;2024-03-29T06:04:56;3.00;;;0.40;;
75209;SDS011;63796;53.136;14.882;2024-03-29T06:08:57;2.50;;;0.40;;
75209;SDS011;63796;53.136;14.882;2024-03-29T06:12:57;1.50;;;0.40;;
75209;SDS011;63796;53.136;14.882;2024-03-29T06:16:58;3.00;;;0.40;;
75209;SDS011;63796;53.136;14.882;2024-03-29T06:21:05;2.40;;;0.50;;
75209;SDS011;63796;53.136;14.882;2024-03-29T06:25:06;1.80;;;0.40;;
75209;SDS011;63796;53.136;14.882;2024-03-29T06:29:07;0.60;;;0.20;;
75209;SDS011;63796;53.136;14.882;2024-03-29T06:33:07;2.20;;;0.40;;
75209;SDS011;63796;53.136;14.882;2024-03-29T06:37:08;1.90;;;0.30;;
75209;SDS011;63796;53.136;14.882;2024-03-29T06:41:09;2.90;;;0.50;;
75209;SDS011;63796;53.136;14.882;2024-03-29T06:45:10;5.10;;;0.30;;
75209;SDS011;63796;53.136;14.882;2024-03-29T06:49:10;1.90;;;0.30;;
75209;SDS011;63796;53.136;14.882;2024-03-29T06:53:11;2.00;;;0.50;;
75209;SDS011;63796;53.136;14.882;2024-03-29T06:57:15;1.30;;;0.60;;
75209;SDS011;63796;53.136;14.882;2024-03-29T07:01:15;1.00;;;0.30;;
75209;SDS011;63796;53.136;14.882;2024-03-29T07:05:16;2.20;;;0.30;;
75209;SDS011;63796;53.136;14.882;2024-03-29T07:09:18;3.60;;;0.80;;
75209;SDS011;63796;53.136;14.882;2024-03-29T07:13:18;1.80;;;0.70;;
75209;SDS011;63796;53.136;14.882;2024-03-29T07:17:19;1.40;;;0.40;;
75209;SDS011;63796;53.136;14.882;2024-03-29T07:21:19;4.30;;;0.50;;
75209;SDS011;63796;53.136;14.882;2024-03-29T07:25:20;2.80;;;0.50;;
75209;SDS011;63796;53.136;14.882;2024-03-29T07:29:21;1.20;;;0.60;;
75209;SDS011;63796;53.136;14.882;2024-03-29T07:33:22;2.20;;;0.70;;
75209;SDS011;63796;53.136;14.882;2024-03-29T07:37:22;3.40;;;0.40;;
75209;SDS011;63796;53.136;14.882;2024-03-29T07:41:23;2.40;;;0.40;;
75209;SDS011;63796;53.136;14.882;2024-03-29T07:45:24;2.30;;;0.50;;
75209;SDS011;63796;53.136;14.882;2024-03-29T07:49:25;1.70;;;0.40;;
75209;SDS011;63796;53.136;14.882;2024-03-29T07:53:26;1.00;;;0.50;;
75209;SDS011;63796;53.136;14.882;2024-03-29T07:57:26;1.80;;;0.60;;
75209;SDS011;63796;53.136;14.882;2024-03-29T08:01:27;2.10;;;0.60;;
75209;SDS011;63796;53.136;14.882;2024-03-29T08:05:28;2.10;;;0.30;;
75209;SDS011;63796;53.136;14.882;2024-03-29T08:09:29;3.20;;;0.70;;
75209;SDS011;63796;53.136;14.882;2024-03-29T08:13:29;1.00;;;0.40;;
75209;SDS011;63796;53.136;14.882;2024-03-29T08:17:30;1.70;;;0.30;;
75209;SDS011;63796;53.136;14.882;2024-03-29T08:21:31;1.30;;;0.50;;
75209;SDS011;63796;53.136;14.882;2024-03-29T08:25:32;4.20;;;0.50;;
75209;SDS011;63796;53.136;14.882;2024-03-29T08:29:33;2.20;;;0.50;;
75209;SDS011;63796;53.136;14.882;2024-03-29T08:33:33;4.80;;;0.80;;
75209;SDS011;63796;53.136;14.882;2024-03-29T08:37:34;2.50;;;0.70;;
75209;SDS011;63796;53.136;14.882;2024-03-29T08:41:35;1.80;;;0.70;;
75209;SDS011;63796;53.136;14.882;2024-03-29T08:45:36;2.20;;;0.90;;
75209;SDS011;63796;53.136;14.882;2024-03-29T08:49:36;2.60;;;0.40;;
75209;SDS011;63796;53.136;14.882;2024-03-29T08:53:37;2.20;;;0.40;;
75209;SDS011;63796;53.136;14.882;2024-03-29T08:57:38;2.00;;;0.70;;
75209;SDS011;63796;53.136;14.882;2024-03-29T09:01:45;1.10;;;0.70;;
75209;SDS011;63796;53.136;14.882;2024-03-29T09:05:48;1.60;;;0.60;;
75209;SDS011;63796;53.136;14.882;2024-03-29T09:09:49;1.50;;;0.60;;
75209;SDS011;63796;53.136;14.882;2024-03-29T09:13:49;1.70;;;0.60;;
75209;SDS011;63796;53.136;14.882;2024-03-29T09:17:50;1.90;;;0.50;;
75209;SDS011;63796;53.136;14.882;2024-03-29T09:21:51;1.40;;;0.60;;
75209;SDS011;63796;53.136;14.882;2024-03-29T09:25:52;2.90;;;0.70;;
75209;SDS011;63796;53.136;14.882;2024-03-29T09:29:54;1.60;;;0.30;;
75209;SDS011;63796;53.136;14.882;2024-03-29T09:33:53;1.30;;;0.60;;
75209;SDS011;63796;53.136;14.882;2024-03-29T09:37:54;2.80;;;0.80;;
75209;SDS011;63796;53.136;14.882;2024-03-29T09:41:55;2.20;;;0.60;;
75209;SDS011;63796;53.136;14.882;2024-03-29T09:45:56;1.60;;;0.80;;
75209;SDS011;63796;53.136;14.882;2024-03-29T09:49:56;2.10;;;0.70;;
75209;SDS011;63796;53.136;14.882;2024-03-29T09:53:58;3.00;;;0.40;;
75209;SDS011;63796;53.136;14.882;2024-03-29T09:57:58;1.10;;;0.40;;
75209;SDS011;63796;53.136;14.882;2024-03-29T10:01:59;1.60;;;0.80;;
75209;SDS011;63796;53.136;14.882;2024-03-29T10:06:00;1.80;;;0.30;;
75209;SDS011;63796;53.136;14.882;2024-03-29T10:10:00;1.80;;;0.40;;
75209;SDS011;63796;53.136;14.882;2024-03-29T10:14:01;1.60;;;0.50;;
75209;SDS011;63796;53.136;14.882;2024-03-29T10:18:08;1.40;;;0.30;;
75209;SDS011;63796;53.136;14.882;2024-03-29T10:22:08;2.70;;;0.80;;
75209;SDS011;63796;53.136;14.882;2024-03-29T10:26:06;1.90;;;0.40;;
75209;SDS011;63796;53.136;14.882;2024-03-29T10:30:07;1.00;;;0.30;;
75209;SDS011;63796;53.136;14.882;2024-03-29T10:34:08;1.70;;;0.30;;
75209;SDS011;63796;53.136;14.882;2024-03-29T10:38:09;2.00;;;0.30;;
75209;SDS011;63796;53.136;14.882;2024-03-29T10:42:09;3.20;;;0.30;;
75209;SDS011;63796;53.136;14.882;2024-03-29T10:46:10;2.10;;;0.30;;
75209;SDS011;63796;53.136;14.882;2024-03-29T10:50:14;1.50;;;0.30;;
75209;SDS011;63796;53.136;14.882;2024-03-29T10:54:15;4.30;;;1.50;;
75209;SDS011;63796;53.136;14.882;2024-03-29T10:58:15;2.60;;;0.60;;
75209;SDS011;63796;53.136;14.882;2024-03-29T11:02:28;2.40;;;0.40;;
75209;SDS011;63796;53.136;14.882;2024-03-29T11:06:23;3.70;;;0.90;;
75209;SDS011;63796;53.136;14.882;2024-03-29T11:10:29;3.20;;;0.60;;
75209;SDS011;63796;53.136;14.882;2024-03-29T11:14:35;2.20;;;0.60;;
75209;SDS011;63796;53.136;14.882;2024-03-29T11:18:35;1.40;;;0.70;;
75209;SDS011;63796;53.136;14.882;2024-03-29T11:22:35;2.10;;;0.40;;
75209;SDS011;63796;53.136;14.882;2024-03-29T11:26:36;1.00;;;0.30;;
75209;SDS011;63796;53.136;14.882;2024-03-29T11:30:40;2.00;;;0.40;;
75209;SDS011;63796;53.136;14.882;2024-03-29T11:34:43;3.00;;;0.70;;
75209;SDS011;63796;53.136;14.882;2024-03-29T11:38:50;2.00;;;0.60;;
75209;SDS011;63796;53.136;14.882;2024-03-29T11:42:57;3.40;;;0.70;;
75209;SDS011;63796;53.136;14.882;2024-03-29T11:46:58;1.70;;;0.40;;
75209;SDS011;63796;53.136;14.882;2024-03-29T11:51:02;0.90;;;0.40;;
75209;SDS011;63796;53.136;14.882;2024-03-29T11:54:59;1.80;;;0.30;;
75209;SDS011;63796;53.136;14.882;2024-03-29T11:59:00;3.20;;;0.60;;
75209;SDS011;63796;53.136;14.882;2024-03-29T12:03:01;1.30;;;0.30;;
75209;SDS011;63796;53.136;14.882;2024-03-29T12:07:02;2.70;;;0.60;;
75209;SDS011;63796;53.136;14.882;2024-03-29T12:11:03;2.70;;;0.40;;
75209;SDS011;63796;53.136;14.882;2024-03-29T12:15:03;1.50;;;0.20;;
75209;SDS011;63796;53.136;14.882;2024-03-29T12:19:04;4.90;;;0.70;;
75209;SDS011;63796;53.136;14.882;2024-03-29T12:23:05;1.00;;;0.20;;
75209;SDS011;63796;53.136;14.882;2024-03-29T12:27:06;3.40;;;0.40;;
75209;SDS011;63796;53.136;14.882;2024-03-29T12:31:08;1.20;;;0.20;;
75209;SDS011;63796;53.136;14.882;2024-03-29T12:35:14;2.00;;;0.50;;
75209;SDS011;63796;53.136;14.882;2024-03-29T12:39:12;2.00;;;0.30;;
75209;SDS011;63796;53.136;14.882;2024-03-29T12:43:12;1.50;;;0.40;;
75209;SDS011;63796;53.136;14.882;2024-03-29T12:47:12;1.10;;;0.30;;
75209;SDS011;63796;53.136;14.882;2024-03-29T12:51:13;2.00;;;0.50;;
75209;SDS011;63796;53.136;14.882;2024-03-29T12:55:14;2.00;;;0.30;;
75209;SDS011;63796;53.136;14.882;2024-03-29T12:59:15;2.30;;;0.40;;
75209;SDS011;63796;53.136;14.882;2024-03-29T13:03:15;3.20;;;0.40;;
75209;SDS011;63796;53.136;14.882;2024-03-29T13:07:16;0.70;;;0.20;;
75209;SDS011;63796;53.136;14.882;2024-03-29T13:11:17;1.80;;;0.20;;
75209;SDS011;63796;53.136;14.882;2024-03-29T13:15:24;1.30;;;0.40;;
75209;SDS011;63796;53.136;14.882;2024-03-29T13:19:24;2.50;;;0.20;;
75209;SDS011;63796;53.136;14.882;2024-03-29T13:23:25;1.80;;;0.40;;
75209;SDS011;63796;53.136;14.882;2024-03-29T13:27:25;2.10;;;0.30;;
75209;SDS011;63796;53.136;14.882;2024-03-29T13:31:26;4.70;;;0.20;;
75209;SDS011;63796;53.136;14.882;2024-03-29T13:35:27;0.50;;;0.00;;
75209;SDS011;63796;53.136;14.882;2024-03-29T13:39:28;1.70;;;0.20;;
75209;SDS011;63796;53.136;14.882;2024-03-29T13:43:28;2.60;;;0.20;;
75209;SDS011;63796;53.136;14.882;2024-03-29T13:47:29;0.90;;;0.30;;
75209;SDS011;63796;53.136;14.882;2024-03-29T13:51:30;0.80;;;0.10;;
75209;SDS011;63796;53.136;14.882;2024-03-29T13:55:31;0.90;;;0.40;;
75209;SDS011;63796;53.136;14.882;2024-03-29T13:59:31;1.30;;;0.20;;
75209;SDS011;63796;53.136;14.882;2024-03-29T14:03:32;3.30;;;0.40;;
75209;SDS011;63796;53.136;14.882;2024-03-29T14:07:33;1.70;;;0.40;;
75209;SDS011;63796;53.136;14.882;2024-03-29T14:11:34;1.40;;;0.30;;
75209;SDS011;63796;53.136;14.882;2024-03-29T14:15:35;2.40;;;0.40;;
75209;SDS011;63796;53.136;14.882;2024-03-29T14:19:38;1.50;;;0.50;;
75209;SDS011;63796;53.136;14.882;2024-03-29T14:23:39;1.30;;;0.30;;
75209;SDS011;63796;53.136;14.882;2024-03-29T14:27:40;0.70;;;0.10;;
75209;SDS011;63796;53.136;14.882;2024-03-29T14:31:40;1.50;;;0.30;;
75209;SDS011;63796;53.136;14.882;2024-03-29T14:35:41;1.40;;;0.40;;
75209;SDS011;63796;53.136;14.882;2024-03-29T14:39:42;1.30;;;0.40;;
75209;SDS011;63796;53.136;14.882;2024-03-29T14:43:43;2.60;;;0.50;;
75209;SDS011;63796;53.136;14.882;2024-03-29T14:47:43;1.20;;;0.20;;
75209;SDS011;63796;53.136;14.882;2024-03-29T14:51:44;1.30;;;0.20;;
75209;SDS011;63796;53.136;14.882;2024-03-29T14:55:45;2.20;;;0.20;;
75209;SDS011;63796;53.136;14.882;2024-03-29T14:59:46;1.30;;;0.20;;
75209;SDS011;63796;53.136;14.882;2024-03-29T15:03:46;2.10;;;0.50;;
75209;SDS011;63796;53.136;14.882;2024-03-29T15:07:47;4.00;;;0.80;;
75209;SDS011;63796;53.136;14.882;2024-03-29T15:11:48;2.70;;;0.50;;
75209;SDS011;63796;53.136;14.882;2024-03-29T15:15:55;3.30;;;0.40;;
75209;SDS011;63796;53.136;14.882;2024-03-29T15:19:52;2.30;;;0.80;;
75209;SDS011;63796;53.136;14.882;2024-03-29T15:23:53;4.90;;;2.00;;
75209;SDS011;63796;53.136;14.882;2024-03-29T15:27:54;2.60;;;0.40;;
75209;SDS011;63796;53.136;14.882;2024-03-29T15:31:35;5.00;;;0.80;;
75209;SDS011;63796;53.136;14.882;2024-03-29T15:35:35;1.60;;;0.30;;
75209;SDS011;63796;53.136;14.882;2024-03-29T15:39:36;3.40;;;0.40;;
75209;SDS011;63796;53.136;14.882;2024-03-29T15:43:37;1.50;;;0.50;;
75209;SDS011;63796;53.136;14.882;2024-03-29T15:47:38;1.30;;;0.50;;
75209;SDS011;63796;53.136;14.882;2024-03-29T15:51:38;1.60;;;0.50;;
75209;SDS011;63796;53.136;14.882;2024-03-29T15:55:39;2.50;;;0.80;;
75209;SDS011;63796;53.136;14.882;2024-03-29T15:59:40;3.40;;;0.50;;
75209;SDS011;63796;53.136;14.882;2024-03-29T16:03:41;3.70;;;0.70;;
75209;SDS011;63796;53.136;14.882;2024-03-29T16:07:45;2.60;;;0.60;;
75209;SDS011;63796;53.136;14.882;2024-03-29T16:11:46;2.10;;;0.40;;
75209;SDS011;63796;53.136;14.882;2024-03-29T16:15:47;1.00;;;0.30;;
75209;SDS011;63796;53.136;14.882;2024-03-29T16:19:47;11.60;;;0.50;;
75209;SDS011;63796;53.136;14.882;2024-03-29T16:23:48;2.10;;;0.20;;
75209;SDS011;63796;53.136;14.882;2024-03-29T16:27:49;1.30;;;0.20;;
75209;SDS011;63796;53.136;14.882;2024-03-29T16:31:50;3.40;;;0.40;;
75209;SDS011;63796;53.136;14.882;2024-03-29T16:35:52;2.30;;;0.40;;
75209;SDS011;63796;53.136;14.882;2024-03-29T16:39:51;1.80;;;0.40;;
75209;SDS011;63796;53.136;14.882;2024-03-29T16:43:52;1.00;;;0.40;;
75209;SDS011;63796;53.136;14.882;2024-03-29T16:47:53;2.60;;;0.30;;
75209;SDS011;63796;53.136;14.882;2024-03-29T16:51:53;6.00;;;0.50;;
75209;SDS011;63796;53.136;14.882;2024-03-29T16:55:54;2.70;;;0.60;;
75209;SDS011;63796;53.136;14.882;2024-03-29T16:59:55;1.90;;;0.40;;
75209;SDS011;63796;53.136;14.882;2024-03-29T17:03:56;4.10;;;1.00;;
75209;SDS011;63796;53.136;14.882;2024-03-29T17:07:56;2.70;;;1.10;;
75209;SDS011;63796;53.136;14.882;2024-03-29T17:11:57;5.80;;;1.80;;
75209;SDS011;63796;53.136;14.882;2024-03-29T17:15:58;3.80;;;0.90;;
75209;SDS011;63796;53.136;14.882;2024-03-29T17:19:59;4.80;;;0.50;;
75209;SDS011;63796;53.136;14.882;2024-03-29T17:23:59;2.60;;;0.60;;
75209;SDS011;63796;53.136;14.882;2024-03-29T17:28:00;2.00;;;0.50;;
75209;SDS011;63796;53.136;14.882;2024-03-29T17:32:01;4.60;;;1.60;;
75209;SDS011;63796;53.136;14.882;2024-03-29T17:36:02;6.40;;;1.80;;
75209;SDS011;63796;53.136;14.882;2024-03-29T17:40:03;3.50;;;1.90;;
75209;SDS011;63796;53.136;14.882;2024-03-29T17:44:04;4.20;;;1.80;;
75209;SDS011;63796;53.136;14.882;2024-03-29T17:48:04;8.50;;;3.80;;
75209;SDS011;63796;53.136;14.882;2024-03-29T17:52:05;1.80;;;0.70;;
75209;SDS011;63796;53.136;14.882;2024-03-29T17:56:06;2.60;;;0.40;;
75209;SDS011;63796;53.136;14.882;2024-03-29T18:00:07;5.80;;;0.50;;
75209;SDS011;63796;53.136;14.882;2024-03-29T18:04:08;3.50;;;0.50;;
75209;SDS011;63796;53.136;14.882;2024-03-29T18:08:08;0.40;;;0.10;;
75209;SDS011;63796;53.136;14.882;2024-03-29T18:12:09;0.50;;;0.20;;
75209;SDS011;63796;53.136;14.882;2024-03-29T18:16:11;1.90;;;0.20;;
75209;SDS011;63796;53.136;14.882;2024-03-29T18:20:11;1.50;;;0.10;;
75209;SDS011;63796;53.136;14.882;2024-03-29T18:24:11;1.70;;;0.10;;
75209;SDS011;63796;53.136;14.882;2024-03-29T18:28:12;0.30;;;0.00;;
75209;SDS011;63796;53.136;14.882;2024-03-29T18:32:13;1.30;;;0.00;;
75209;SDS011;63796;53.136;14.882;2024-03-29T18:36:14;0.40;;;0.10;;
75209;SDS011;63796;53.136;14.882;2024-03-29T18:40:14;0.70;;;0.00;;
75209;SDS011;63796;53.136;14.882;2024-03-29T18:44:15;0.60;;;0.10;;
75209;SDS011;63796;53.136;14.882;2024-03-29T18:48:16;0.70;;;0.20;;
75209;SDS011;63796;53.136;14.882;2024-03-29T18:52:17;1.70;;;0.20;;
75209;SDS011;63796;53.136;14.882;2024-03-29T18:56:18;0.90;;;0.00;;
75209;SDS011;63796;53.136;14.882;2024-03-29T19:00:18;0.40;;;0.10;;
75209;SDS011;63796;53.136;14.882;2024-03-29T19:04:19;0.90;;;0.10;;
75209;SDS011;63796;53.136;14.882;2024-03-29T19:08:20;0.90;;;0.00;;
75209;SDS011;63796;53.136;14.882;2024-03-29T19:12:21;3.80;;;0.10;;
75209;SDS011;63796;53.136;14.882;2024-03-29T19:16:21;0.50;;;0.20;;
75209;SDS011;63796;53.136;14.882;2024-03-29T19:20:23;0.30;;;0.10;;
75209;SDS011;63796;53.136;14.882;2024-03-29T19:24:23;0.50;;;0.10;;
75209;SDS011;63796;53.136;14.882;2024-03-29T19:28:24;1.20;;;0.10;;
75209;SDS011;63796;53.136;14.882;2024-03-29T19:32:27;0.80;;;0.30;;
75209;SDS011;63796;53.136;14.882;2024-03-29T19:36:26;0.80;;;0.20;;
75209;SDS011;63796;53.136;14.882;2024-03-29T19:40:27;0.50;;;0.10;;
75209;SDS011;63796;53.136;14.882;2024-03-29T19:44:28;0.50;;;0.20;;
75209;SDS011;63796;53.136;14.882;2024-03-29T19:48:28;0.60;;;0.20;;
75209;SDS011;63796;53.136;14.882;2024-03-29T19:52:29;0.40;;;0.20;;
75209;SDS011;63796;53.136;14.882;2024-03-29T19:56:30;0.50;;;0.10;;
75209;SDS011;63796;53.136;14.882;2024-03-29T20:00:31;0.30;;;0.10;;
75209;SDS011;63796;53.136;14.882;2024-03-29T20:04:32;1.60;;;0.40;;
75209;SDS011;63796;53.136;14.882;2024-03-29T20:08:33;0.60;;;0.10;;
75209;SDS011;63796;53.136;14.882;2024-03-29T20:12:33;3.10;;;0.40;;
75209;SDS011;63796;53.136;14.882;2024-03-29T20:16:34;1.20;;;0.60;;
75209;SDS011;63796;53.136;14.882;2024-03-29T20:20:35;0.70;;;0.30;;
75209;SDS011;63796;53.136;14.882;2024-03-29T20:24:35;0.90;;;0.20;;
75209;SDS011;63796;53.136;14.882;2024-03-29T20:28:36;0.60;;;0.10;;
75209;SDS011;63796;53.136;14.882;2024-03-29T20:32:37;2.20;;;0.20;;
75209;SDS011;63796;53.136;14.882;2024-03-29T20:36:38;0.60;;;0.20;;
75209;SDS011;63796;53.136;14.882;2024-03-29T20:40:38;1.20;;;0.20;;
75209;SDS011;63796;53.136;14.882;2024-03-29T20:44:39;0.50;;;0.10;;
75209;SDS011;63796;53.136;14.882;2024-03-29T20:48:40;0.80;;;0.20;;
75209;SDS011;63796;53.136;14.882;2024-03-29T20:52:41;2.80;;;1.40;;
75209;SDS011;63796;53.136;14.882;2024-03-29T20:56:42;1.90;;;0.50;;
75209;SDS011;63796;53.136;14.882;2024-03-29T21:00:42;3.90;;;1.80;;
75209;SDS011;63796;53.136;14.882;2024-03-29T21:04:43;2.90;;;1.30;;
75209;SDS011;63796;53.136;14.882;2024-03-29T21:08:43;14.70;;;6.40;;
75209;SDS011;63796;53.136;14.882;2024-03-29T21:12:43;11.10;;;4.90;;
75209;SDS011;63796;53.136;14.882;2024-03-29T21:16:44;18.30;;;7.80;;
75209;SDS011;63796;53.136;14.882;2024-03-29T21:20:45;9.90;;;3.30;;
75209;SDS011;63796;53.136;14.882;2024-03-29T21:24:45;1.30;;;0.40;;
75209;SDS011;63796;53.136;14.882;2024-03-29T21:28:46;16.00;;;6.40;;
75209;SDS011;63796;53.136;14.882;2024-03-29T21:32:47;24.50;;;9.60;;
75209;SDS011;63796;53.136;14.882;2024-03-29T21:36:48;12.80;;;6.10;;
75209;SDS011;63796;53.136;14.882;2024-03-29T21:40:48;25.80;;;8.60;;
75209;SDS011;63796;53.136;14.882;2024-03-29T21:44:49;4.60;;;1.20;;
75209;SDS011;63796;53.136;14.882;2024-03-29T21:48:50;1.20;;;0.60;;
75209;SDS011;63796;53.136;14.882;2024-03-29T21:52:50;2.80;;;1.00;;
75209;SDS011;63796;53.136;14.882;2024-03-29T21:56:51;1.80;;;0.80;;
75209;SDS011;63796;53.136;14.882;2024-03-29T22:03:50;2.60;;;0.80;;
75209;SDS011;63796;53.136;14.882;2024-03-29T22:06:17;6.40;;;1.80;;
75209;SDS011;63796;53.136;14.882;2024-03-29T22:08:44;6.30;;;3.00;;
75209;SDS011;63796;53.136;14.882;2024-03-29T22:11:11;8.00;;;3.70;;
75209;SDS011;63796;53.136;14.882;2024-03-29T22:13:39;2.90;;;0.80;;
75209;SDS011;63796;53.136;14.882;2024-03-29T22:16:06;1.60;;;0.90;;
75209;SDS011;63796;53.136;14.882;2024-03-29T22:18:35;1.10;;;0.80;;
75209;SDS011;63796;53.136;14.882;2024-03-29T22:21:03;1.40;;;0.30;;
75209;SDS011;63796;53.136;14.882;2024-03-29T22:23:30;0.50;;;0.20;;
75209;SDS011;63796;53.136;14.882;2024-03-29T22:25:57;0.40;;;0.20;;
75209;SDS011;63796;53.136;14.882;2024-03-29T22:28:24;1.60;;;0.70;;
75209;SDS011;63796;53.136;14.882;2024-03-29T22:30:53;3.10;;;1.20;;
75209;SDS011;63796;53.136;14.882;2024-03-29T22:33:20;3.60;;;1.30;;
75209;SDS011;63796;53.136;14.882;2024-03-29T22:35:47;4.30;;;1.10;;
75209;SDS011;63796;53.136;14.882;2024-03-29T22:38:14;2.60;;;0.90;;
75209;SDS011;63796;53.136;14.882;2024-03-29T22:40:46;2.30;;;1.10;;
75209;SDS011;63796;53.136;14.882;2024-03-29T22:43:14;2.90;;;0.80;;
75209;SDS011;63796;53.136;14.882;2024-03-29T22:45:41;2.00;;;0.60;;
75209;SDS011;63796;53.136;14.882;2024-03-29T22:48:08;1.40;;;0.40;;
75209;SDS011;63796;53.136;14.882;2024-03-29T22:50:37;2.00;;;0.70;;
75209;SDS011;63796;53.136;14.882;2024-03-29T22:53:04;2.30;;;0.60;;
75209;SDS011;63796;53.136;14.882;2024-03-29T22:55:33;0.80;;;0.40;;
75209;SDS011;63796;53.136;14.882;2024-03-29T22:58:03;1.20;;;0.50;;
75209;SDS011;63796;53.136;14.882;2024-03-29T23:00:30;0.80;;;0.30;;
75209;SDS011;63796;53.136;14.882;2024-03-29T23:02:58;0.70;;;0.40;;
75209;SDS011;63796;53.136;14.882;2024-03-29T23:05:26;1.00;;;0.30;;